sensor_id;sensor_type;location;lat;lon;timestamp;temperature;humidity
47921;DHT22;33686;48.770;9.186;2023-04-24T04:19:55;11.00;99.90
47921;DHT22;33686;48.770;9.186;2023-04-24T04:22:22;11.00;99.90
47921;DHT22;33686;48.770;9.186;2023-04-24T04:24:50;11.10;99.90
47921;DHT22;33686;48.770;9.186;2023-04-24T04:27:18;11.10;99.90
47921;DHT22;33686;48.770;9.186;2023-04-24T04:29:49;11.10;99.90
47921;DHT22;33686;48.770;9.186;2023-04-24T04:32:15;11.10;99.90
47921;DHT22;33686;48.770;9.186;2023-04-24T04:34:41;10.80;99.90
47921;DHT22;33686;48.770;9.186;2023-04-24T04:37:10;10.80;99.90
47921;DHT22;33686;48.770;9.186;2023-04-24T04:39:47;10.70;99.90
47921;DHT22;33686;48.770;9.186;2023-04-24T04:42:18;10.70;99.90
47921;DHT22;33686;48.770;9.186;2023-04-24T04:44:44;10.70;99.90
47921;DHT22;33686;48.770;9.186;2023-04-24T04:47:16;10.60;99.90
47921;DHT22;33686;48.770;9.186;2023-04-24T04:49:42;10.60;99.90
47921;DHT22;33686;48.770;9.186;2023-04-24T04:52:16;10.50;99.90
47921;DHT22;33686;48.770;9.186;2023-04-24T04:54:44;10.40;99.90
47921;DHT22;33686;48.770;9.186;2023-04-24T04:57:10;10.40;99.90
47921;DHT22;33686;48.770;9.186;2023-04-24T04:59:36;10.40;99.90
47921;DHT22;33686;48.770;9.186;2023-04-24T05:02:06;10.50;99.90
47921;DHT22;33686;48.770;9.186;2023-04-24T05:04:32;10.50;99.90
47921;DHT22;33686;48.770;9.186;2023-04-24T05:06:57;10.50;99.90
47921;DHT22;33686;48.770;9.186;2023-04-24T05:09:25;10.50;99.90
47921;DHT22;33686;48.770;9.186;2023-04-24T05:11:56;10.40;99.90
47921;DHT22;33686;48.770;9.186;2023-04-24T05:14:22;10.50;99.90
47921;DHT22;33686;48.770;9.186;2023-04-24T05:16:49;10.40;99.90
47921;DHT22;33686;48.770;9.186;2023-04-24T05:19:17;10.40;99.90
47921;DHT22;33686;48.770;9.186;2023-04-24T05:21:44;10.50;99.90
47921;DHT22;33686;48.770;9.186;2023-04-24T05:24:10;10.50;99.90
47921;DHT22;33686;48.770;9.186;2023-04-24T05:27:02;10.40;99.90
47921;DHT22;33686;48.770;9.186;2023-04-24T05:29:34;10.40;99.90
47921;DHT22;33686;48.770;9.186;2023-04-24T05:32:00;10.40;99.90
47921;DHT22;33686;48.770;9.186;2023-04-24T05:34:28;10.50;99.90
47921;DHT22;33686;48.770;9.186;2023-04-24T05:36:55;10.60;99.90
47921;DHT22;33686;48.770;9.186;2023-04-24T05:39:21;10.60;99.90
47921;DHT22;33686;48.770;9.186;2023-04-24T05:41:46;10.60;99.90
47921;DHT22;33686;48.770;9.186;2023-04-24T05:44:12;10.60;99.90
47921;DHT22;33686;48.770;9.186;2023-04-24T05:46:37;10.60;99.90
47921;DHT22;33686;48.770;9.186;2023-04-24T05:49:03;10.60;99.90
47921;DHT22;33686;48.770;9.186;2023-04-24T05:51:30;10.60;99.90
47921;DHT22;33686;48.770;9.186;2023-04-24T05:53:57;10.80;99.90
47921;DHT22;33686;48.770;9.186;2023-04-24T05:56:24;10.80;99.90
47921;DHT22;33686;48.770;9.186;2023-04-24T05:58:50;10.80;99.90
47921;DHT22;33686;48.770;9.186;2023-04-24T06:01:15;10.80;99.90
47921;DHT22;33686;48.770;9.186;2023-04-24T06:03:44;10.90;99.90
47921;DHT22;33686;48.770;9.186;2023-04-24T06:06:10;11.00;99.90
47921;DHT22;33686;48.770;9.186;2023-04-24T06:08:36;11.00;99.90
47921;DHT22;33686;48.770;9.186;2023-04-24T06:11:02;11.10;99.90
47921;DHT22;33686;48.770;9.186;2023-04-24T06:13:28;11.10;99.90
47921;DHT22;33686;48.770;9.186;2023-04-24T06:16:12;11.10;99.90
47921;DHT22;33686;48.770;9.186;2023-04-24T06:18:40;11.20;99.90
47921;DHT22;33686;48.770;9.186;2023-04-24T06:21:06;11.50;99.90
47921;DHT22;33686;48.770;9.186;2023-04-24T06:23:31;11.80;99.90
47921;DHT22;33686;48.770;9.186;2023-04-24T06:25:58;12.70;99.90
47921;DHT22;33686;48.770;9.186;2023-04-24T06:28:24;14.40;99.90
47921;DHT22;33686;48.770;9.186;2023-04-24T06:30:51;16.00;99.90
47921;DHT22;33686;48.770;9.186;2023-04-24T06:33:16;17.30;99.90
47921;DHT22;33686;48.770;9.186;2023-04-24T06:35:42;17.90;99.90
47921;DHT22;33686;48.770;9.186;2023-04-24T06:38:08;18.40;99.90
47921;DHT22;33686;48.770;9.186;2023-04-24T06:40:33;18.70;99.90
47921;DHT22;33686;48.770;9.186;2023-04-24T06:42:59;19.30;99.90
47921;DHT22;33686;48.770;9.186;2023-04-24T06:45:25;19.70;99.90
47921;DHT22;33686;48.770;9.186;2023-04-24T06:47:51;20.30;99.90
47921;DHT22;33686;48.770;9.186;2023-04-24T06:50:16;20.70;99.90
47921;DHT22;33686;48.770;9.186;2023-04-24T06:52:42;20.80;99.80
47921;DHT22;33686;48.770;9.186;2023-04-24T06:55:08;20.90;99.40
47921;DHT22;33686;48.770;9.186;2023-04-24T06:57:33;20.80;99.40
47921;DHT22;33686;48.770;9.186;2023-04-24T06:59:59;20.40;99.30
47921;DHT22;33686;48.770;9.186;2023-04-24T07:02:24;20.00;99.70
47921;DHT22;33686;48.770;9.186;2023-04-24T07:04:50;18.70;99.90
47921;DHT22;33686;48.770;9.186;2023-04-24T07:07:15;18.00;99.90
47921;DHT22;33686;48.770;9.186;2023-04-24T07:09:42;17.60;99.90
47921;DHT22;33686;48.770;9.186;2023-04-24T07:12:08;17.50;99.90
47921;DHT22;33686;48.770;9.186;2023-04-24T07:14:36;16.80;99.90
47921;DHT22;33686;48.770;9.186;2023-04-24T07:17:02;16.10;99.90
47921;DHT22;33686;48.770;9.186;2023-04-24T07:19:27;15.50;99.90
47921;DHT22;33686;48.770;9.186;2023-04-24T07:21:53;15.00;99.90
47921;DHT22;33686;48.770;9.186;2023-04-24T07:24:20;14.80;99.90
47921;DHT22;33686;48.770;9.186;2023-04-24T07:26:46;14.30;99.90
47921;DHT22;33686;48.770;9.186;2023-04-24T07:29:12;13.70;99.90
47921;DHT22;33686;48.770;9.186;2023-04-24T07:31:38;13.60;99.90
47921;DHT22;33686;48.770;9.186;2023-04-24T07:34:04;13.40;99.90
47921;DHT22;33686;48.770;9.186;2023-04-24T07:36:29;13.30;99.90
47921;DHT22;33686;48.770;9.186;2023-04-24T07:38:55;13.60;99.90
47921;DHT22;33686;48.770;9.186;2023-04-24T07:41:22;15.20;99.90
47921;DHT22;33686;48.770;9.186;2023-04-24T07:43:47;16.50;99.90
47921;DHT22;33686;48.770;9.186;2023-04-24T07:46:13;17.70;99.90
47921;DHT22;33686;48.770;9.186;2023-04-24T07:48:39;17.90;99.60
47921;DHT22;33686;48.770;9.186;2023-04-24T07:51:04;17.70;99.30
47921;DHT22;33686;48.770;9.186;2023-04-24T07:53:30;18.10;99.80
47921;DHT22;33686;48.770;9.186;2023-04-24T07:55:55;18.80;98.00
47921;DHT22;33686;48.770;9.186;2023-04-24T07:58:21;18.20;98.00
47921;DHT22;33686;48.770;9.186;2023-04-24T08:00:47;17.00;99.20
47921;DHT22;33686;48.770;9.186;2023-04-24T08:03:12;16.50;99.90
47921;DHT22;33686;48.770;9.186;2023-04-24T08:05:38;16.30;99.90
47921;DHT22;33686;48.770;9.186;2023-04-24T08:08:03;15.50;99.90
47921;DHT22;33686;48.770;9.186;2023-04-24T08:10:29;14.90;99.90
47921;DHT22;33686;48.770;9.186;2023-04-24T08:12:54;14.30;99.90
47921;DHT22;33686;48.770;9.186;2023-04-24T08:15:20;13.70;99.90
47921;DHT22;33686;48.770;9.186;2023-04-24T08:17:46;13.60;99.90
47921;DHT22;33686;48.770;9.186;2023-04-24T08:20:12;13.80;99.90
47921;DHT22;33686;48.770;9.186;2023-04-24T08:22:39;14.70;99.90
47921;DHT22;33686;48.770;9.186;2023-04-24T08:25:05;15.20;99.90
47921;DHT22;33686;48.770;9.186;2023-04-24T08:27:30;15.90;99.90
47921;DHT22;33686;48.770;9.186;2023-04-24T08:29:56;15.60;99.90
47921;DHT22;33686;48.770;9.186;2023-04-24T08:32:22;15.20;99.90
47921;DHT22;33686;48.770;9.186;2023-04-24T08:34:47;14.60;99.90
47921;DHT22;33686;48.770;9.186;2023-04-24T08:37:13;14.20;99.90
47921;DHT22;33686;48.770;9.186;2023-04-24T08:39:39;14.30;99.90
47921;DHT22;33686;48.770;9.186;2023-04-24T08:42:05;14.60;99.90
47921;DHT22;33686;48.770;9.186;2023-04-24T08:44:33;13.80;99.90
47921;DHT22;33686;48.770;9.186;2023-04-24T08:46:59;13.60;99.90
47921;DHT22;33686;48.770;9.186;2023-04-24T08:49:25;13.40;99.90
47921;DHT22;33686;48.770;9.186;2023-04-24T08:51:52;13.00;99.90
47921;DHT22;33686;48.770;9.186;2023-04-24T08:54:18;12.50;99.90
47921;DHT22;33686;48.770;9.186;2023-04-24T08:56:43;12.20;99.90
47921;DHT22;33686;48.770;9.186;2023-04-24T08:59:09;12.20;99.90
47921;DHT22;33686;48.770;9.186;2023-04-24T09:01:35;12.90;99.90
47921;DHT22;33686;48.770;9.186;2023-04-24T09:04:02;13.10;99.90
47921;DHT22;33686;48.770;9.186;2023-04-24T09:06:29;13.10;99.90
47921;DHT22;33686;48.770;9.186;2023-04-24T09:08:55;13.50;99.90
47921;DHT22;33686;48.770;9.186;2023-04-24T09:11:22;12.80;99.90
47921;DHT22;33686;48.770;9.186;2023-04-24T09:13:49;12.70;99.90
47921;DHT22;33686;48.770;9.186;2023-04-24T09:16:15;12.40;99.90
47921;DHT22;33686;48.770;9.186;2023-04-24T09:18:40;12.00;99.90
47921;DHT22;33686;48.770;9.186;2023-04-24T09:21:07;12.10;99.90
47921;DHT22;33686;48.770;9.186;2023-04-24T09:23:32;12.00;99.90
47921;DHT22;33686;48.770;9.186;2023-04-24T09:25:59;11.70;99.90
47921;DHT22;33686;48.770;9.186;2023-04-24T09:28:32;11.50;99.90
47921;DHT22;33686;48.770;9.186;2023-04-24T09:31:02;11.40;99.90
47921;DHT22;33686;48.770;9.186;2023-04-24T09:33:27;11.40;99.90
47921;DHT22;33686;48.770;9.186;2023-04-24T09:35:53;11.40;99.90
47921;DHT22;33686;48.770;9.186;2023-04-24T09:38:19;11.20;99.90
47921;DHT22;33686;48.770;9.186;2023-04-24T09:40:45;11.30;99.90
47921;DHT22;33686;48.770;9.186;2023-04-24T09:43:11;11.80;99.90
47921;DHT22;33686;48.770;9.186;2023-04-24T09:45:37;12.10;99.90
47921;DHT22;33686;48.770;9.186;2023-04-24T09:48:03;12.50;99.90
47921;DHT22;33686;48.770;9.186;2023-04-24T09:50:29;12.70;99.90
47921;DHT22;33686;48.770;9.186;2023-04-24T09:52:57;12.90;99.90
47921;DHT22;33686;48.770;9.186;2023-04-24T09:55:24;12.80;99.90
47921;DHT22;33686;48.770;9.186;2023-04-24T09:57:53;12.70;99.90
47921;DHT22;33686;48.770;9.186;2023-04-24T10:00:26;12.60;99.90
47921;DHT22;33686;48.770;9.186;2023-04-24T10:03:10;12.80;99.90
47921;DHT22;33686;48.770;9.186;2023-04-24T10:05:37;12.60;99.90
47921;DHT22;33686;48.770;9.186;2023-04-24T10:08:03;12.60;99.90
47921;DHT22;33686;48.770;9.186;2023-04-24T10:10:30;12.90;99.90
47921;DHT22;33686;48.770;9.186;2023-04-24T10:12:56;13.00;99.90
47921;DHT22;33686;48.770;9.186;2023-04-24T10:15:22;13.00;99.90
47921;DHT22;33686;48.770;9.186;2023-04-24T10:17:48;13.20;99.90
47921;DHT22;33686;48.770;9.186;2023-04-24T10:20:21;13.90;99.90
47921;DHT22;33686;48.770;9.186;2023-04-24T10:22:51;14.00;99.90
47921;DHT22;33686;48.770;9.186;2023-04-24T10:25:18;13.80;99.90
47921;DHT22;33686;48.770;9.186;2023-04-24T10:27:45;14.20;99.90
47921;DHT22;33686;48.770;9.186;2023-04-24T10:30:11;14.10;99.90
47921;DHT22;33686;48.770;9.186;2023-04-24T10:32:37;14.70;99.90
47921;DHT22;33686;48.770;9.186;2023-04-24T10:35:03;15.20;98.70
47921;DHT22;33686;48.770;9.186;2023-04-24T10:37:29;15.00;98.30
47921;DHT22;33686;48.770;9.186;2023-04-24T10:40:01;14.70;98.70
47921;DHT22;33686;48.770;9.186;2023-04-24T10:42:27;14.50;99.00
47921;DHT22;33686;48.770;9.186;2023-04-24T10:44:52;14.30;99.30
47921;DHT22;33686;48.770;9.186;2023-04-24T10:47:18;14.10;99.70
47921;DHT22;33686;48.770;9.186;2023-04-24T10:49:44;14.10;99.90
47921;DHT22;33686;48.770;9.186;2023-04-24T10:52:10;14.00;99.90
47921;DHT22;33686;48.770;9.186;2023-04-24T10:54:45;13.70;99.90
47921;DHT22;33686;48.770;9.186;2023-04-24T10:59:46;13.30;99.90
47921;DHT22;33686;48.770;9.186;2023-04-24T11:02:15;13.30;99.90
47921;DHT22;33686;48.770;9.186;2023-04-24T11:04:41;13.60;99.90
47921;DHT22;33686;48.770;9.186;2023-04-24T11:07:11;13.60;99.90
47921;DHT22;33686;48.770;9.186;2023-04-24T11:09:37;13.60;99.90
47921;DHT22;33686;48.770;9.186;2023-04-24T11:12:03;13.50;99.90
47921;DHT22;33686;48.770;9.186;2023-04-24T11:14:59;13.40;99.90
47921;DHT22;33686;48.770;9.186;2023-04-24T11:17:28;13.30;99.90
47921;DHT22;33686;48.770;9.186;2023-04-24T11:19:53;13.10;99.90
47921;DHT22;33686;48.770;9.186;2023-04-24T11:22:25;12.80;99.90
47921;DHT22;33686;48.770;9.186;2023-04-24T11:24:53;13.10;99.90
47921;DHT22;33686;48.770;9.186;2023-04-24T11:27:24;13.20;99.90
47921;DHT22;33686;48.770;9.186;2023-04-24T11:32:28;13.30;99.90
47921;DHT22;33686;48.770;9.186;2023-04-24T11:34:55;13.90;99.90
47921;DHT22;33686;48.770;9.186;2023-04-24T11:37:21;14.20;99.90
47921;DHT22;33686;48.770;9.186;2023-04-24T11:39:49;14.30;99.90
47921;DHT22;33686;48.770;9.186;2023-04-24T11:42:15;14.20;99.90
47921;DHT22;33686;48.770;9.186;2023-04-24T11:44:41;14.40;99.90
47921;DHT22;33686;48.770;9.186;2023-04-24T11:47:06;14.20;99.90
47921;DHT22;33686;48.770;9.186;2023-04-24T11:49:33;14.00;99.90
47921;DHT22;33686;48.770;9.186;2023-04-24T11:52:01;13.80;99.90
47921;DHT22;33686;48.770;9.186;2023-04-24T11:54:27;13.40;99.90
47921;DHT22;33686;48.770;9.186;2023-04-24T11:56:52;13.00;99.90
47921;DHT22;33686;48.770;9.186;2023-04-24T11:59:18;12.80;99.90
47921;DHT22;33686;48.770;9.186;2023-04-24T12:01:46;13.00;99.90
47921;DHT22;33686;48.770;9.186;2023-04-24T12:04:12;13.20;99.90
47921;DHT22;33686;48.770;9.186;2023-04-24T12:06:38;13.40;99.90
47921;DHT22;33686;48.770;9.186;2023-04-24T12:09:04;13.70;99.90
47921;DHT22;33686;48.770;9.186;2023-04-24T12:11:29;13.90;99.90
47921;DHT22;33686;48.770;9.186;2023-04-24T12:13:55;14.10;99.90
47921;DHT22;33686;48.770;9.186;2023-04-24T12:16:21;14.20;99.90
47921;DHT22;33686;48.770;9.186;2023-04-24T12:18:46;14.00;99.90
47921;DHT22;33686;48.770;9.186;2023-04-24T12:21:15;14.00;99.90
47921;DHT22;33686;48.770;9.186;2023-04-24T12:23:44;13.60;99.90
47921;DHT22;33686;48.770;9.186;2023-04-24T12:26:11;13.30;99.90
47921;DHT22;33686;48.770;9.186;2023-04-24T12:28:37;13.40;99.90
47921;DHT22;33686;48.770;9.186;2023-04-24T12:31:03;13.10;99.90
47921;DHT22;33686;48.770;9.186;2023-04-24T12:33:32;13.00;99.90
47921;DHT22;33686;48.770;9.186;2023-04-24T12:35:57;13.30;99.90
47921;DHT22;33686;48.770;9.186;2023-04-24T12:38:24;13.60;99.90
47921;DHT22;33686;48.770;9.186;2023-04-24T12:41:01;13.50;99.90
47921;DHT22;33686;48.770;9.186;2023-04-24T12:43:26;13.50;99.90
47921;DHT22;33686;48.770;9.186;2023-04-24T12:45:52;13.60;99.90
47921;DHT22;33686;48.770;9.186;2023-04-24T12:48:18;13.60;99.90
47921;DHT22;33686;48.770;9.186;2023-04-24T12:50:43;13.40;99.90
47921;DHT22;33686;48.770;9.186;2023-04-24T12:53:09;13.40;99.90
47921;DHT22;33686;48.770;9.186;2023-04-24T12:55:35;13.20;99.90
47921;DHT22;33686;48.770;9.186;2023-04-24T12:58:01;13.20;99.90
47921;DHT22;33686;48.770;9.186;2023-04-24T13:00:28;13.10;99.90
47921;DHT22;33686;48.770;9.186;2023-04-24T13:02:53;13.10;99.90
47921;DHT22;33686;48.770;9.186;2023-04-24T13:05:19;13.10;99.90
47921;DHT22;33686;48.770;9.186;2023-04-24T13:07:45;13.10;99.90
47921;DHT22;33686;48.770;9.186;2023-04-24T13:10:10;12.90;99.90
47921;DHT22;33686;48.770;9.186;2023-04-24T13:12:36;12.80;99.90
47921;DHT22;33686;48.770;9.186;2023-04-24T13:15:02;12.80;99.90
47921;DHT22;33686;48.770;9.186;2023-04-24T13:17:28;12.80;99.90
47921;DHT22;33686;48.770;9.186;2023-04-24T13:19:54;12.90;99.90
47921;DHT22;33686;48.770;9.186;2023-04-24T13:22:20;13.20;99.90
47921;DHT22;33686;48.770;9.186;2023-04-24T13:24:46;13.20;99.90
47921;DHT22;33686;48.770;9.186;2023-04-24T13:27:14;13.00;99.90
47921;DHT22;33686;48.770;9.186;2023-04-24T13:29:40;13.40;99.90
47921;DHT22;33686;48.770;9.186;2023-04-24T13:32:06;13.70;99.90
47921;DHT22;33686;48.770;9.186;2023-04-24T13:34:31;13.50;99.90
47921;DHT22;33686;48.770;9.186;2023-04-24T13:36:57;13.60;99.90
47921;DHT22;33686;48.770;9.186;2023-04-24T13:39:23;13.90;99.90
47921;DHT22;33686;48.770;9.186;2023-04-24T13:41:49;13.80;99.90
47921;DHT22;33686;48.770;9.186;2023-04-24T13:44:15;13.30;99.90
47921;DHT22;33686;48.770;9.186;2023-04-24T13:46:42;13.10;99.90
47921;DHT22;33686;48.770;9.186;2023-04-24T13:49:08;12.90;99.90
47921;DHT22;33686;48.770;9.186;2023-04-24T13:51:34;12.50;99.90
47921;DHT22;33686;48.770;9.186;2023-04-24T13:53:59;12.30;99.90
47921;DHT22;33686;48.770;9.186;2023-04-24T13:56:25;11.80;99.90
47921;DHT22;33686;48.770;9.186;2023-04-24T13:58:51;11.40;99.90
47921;DHT22;33686;48.770;9.186;2023-04-24T14:01:16;11.30;99.90
47921;DHT22;33686;48.770;9.186;2023-04-24T14:03:42;11.30;99.90
47921;DHT22;33686;48.770;9.186;2023-04-24T14:06:10;11.40;99.90
47921;DHT22;33686;48.770;9.186;2023-04-24T14:08:36;11.90;99.90
47921;DHT22;33686;48.770;9.186;2023-04-24T14:11:01;12.50;99.90
47921;DHT22;33686;48.770;9.186;2023-04-24T14:13:28;12.50;99.90
47921;DHT22;33686;48.770;9.186;2023-04-24T14:15:53;12.60;99.90
47921;DHT22;33686;48.770;9.186;2023-04-24T14:18:19;12.80;99.90
47921;DHT22;33686;48.770;9.186;2023-04-24T14:20:45;12.60;99.90
47921;DHT22;33686;48.770;9.186;2023-04-24T14:23:10;12.70;99.90
47921;DHT22;33686;48.770;9.186;2023-04-24T14:25:36;13.00;99.90
47921;DHT22;33686;48.770;9.186;2023-04-24T14:28:02;13.30;99.90
47921;DHT22;33686;48.770;9.186;2023-04-24T14:30:27;13.00;99.90
47921;DHT22;33686;48.770;9.186;2023-04-24T14:32:53;13.10;99.90
47921;DHT22;33686;48.770;9.186;2023-04-24T14:35:18;13.20;99.90
47921;DHT22;33686;48.770;9.186;2023-04-24T14:37:46;13.10;99.90
47921;DHT22;33686;48.770;9.186;2023-04-24T14:40:13;13.30;99.90
47921;DHT22;33686;48.770;9.186;2023-04-24T14:42:39;13.40;99.90
47921;DHT22;33686;48.770;9.186;2023-04-24T14:45:05;13.40;99.90
47921;DHT22;33686;48.770;9.186;2023-04-24T14:47:30;13.50;99.90
47921;DHT22;33686;48.770;9.186;2023-04-24T14:49:56;13.20;99.90
47921;DHT22;33686;48.770;9.186;2023-04-24T14:52:21;12.90;99.90
47921;DHT22;33686;48.770;9.186;2023-04-24T14:54:47;12.70;99.90
47921;DHT22;33686;48.770;9.186;2023-04-24T14:57:12;12.80;99.90
47921;DHT22;33686;48.770;9.186;2023-04-24T14:59:38;12.90;99.90
47921;DHT22;33686;48.770;9.186;2023-04-24T15:02:04;13.00;99.90
47921;DHT22;33686;48.770;9.186;2023-04-24T15:04:29;13.40;99.90
47921;DHT22;33686;48.770;9.186;2023-04-24T15:06:56;13.50;99.90
47921;DHT22;33686;48.770;9.186;2023-04-24T15:09:22;13.40;99.90
47921;DHT22;33686;48.770;9.186;2023-04-24T15:11:50;13.20;99.90
47921;DHT22;33686;48.770;9.186;2023-04-24T15:14:16;12.90;99.90
47921;DHT22;33686;48.770;9.186;2023-04-24T15:16:42;12.70;99.90
47921;DHT22;33686;48.770;9.186;2023-04-24T15:19:08;12.90;99.90
47921;DHT22;33686;48.770;9.186;2023-04-24T15:21:34;12.90;99.90
47921;DHT22;33686;48.770;9.186;2023-04-24T15:24:00;12.90;99.90
47921;DHT22;33686;48.770;9.186;2023-04-24T15:26:26;12.70;99.90
47921;DHT22;33686;48.770;9.186;2023-04-24T15:28:51;12.70;99.90
47921;DHT22;33686;48.770;9.186;2023-04-24T15:31:17;12.70;99.90
47921;DHT22;33686;48.770;9.186;2023-04-24T15:33:43;12.60;99.90
47921;DHT22;33686;48.770;9.186;2023-04-24T15:36:09;12.60;99.90
47921;DHT22;33686;48.770;9.186;2023-04-24T15:38:35;12.50;99.90
47921;DHT22;33686;48.770;9.186;2023-04-24T15:41:00;12.50;99.90
47921;DHT22;33686;48.770;9.186;2023-04-24T15:43:26;12.20;99.90
47921;DHT22;33686;48.770;9.186;2023-04-24T15:45:51;11.30;99.90
47921;DHT22;33686;48.770;9.186;2023-04-24T15:48:17;11.30;99.90
47921;DHT22;33686;48.770;9.186;2023-04-24T15:50:43;11.60;99.90
47921;DHT22;33686;48.770;9.186;2023-04-24T15:53:09;11.90;99.90
47921;DHT22;33686;48.770;9.186;2023-04-24T15:55:34;12.10;99.90
47921;DHT22;33686;48.770;9.186;2023-04-24T15:58:01;12.10;99.90
47921;DHT22;33686;48.770;9.186;2023-04-24T16:00:27;12.20;99.90
47921;DHT22;33686;48.770;9.186;2023-04-24T16:02:59;12.20;99.90
47921;DHT22;33686;48.770;9.186;2023-04-24T16:05:24;12.30;99.90
47921;DHT22;33686;48.770;9.186;2023-04-24T16:07:50;12.30;99.90
47921;DHT22;33686;48.770;9.186;2023-04-24T16:10:16;12.50;99.90
47921;DHT22;33686;48.770;9.186;2023-04-24T16:12:41;12.50;99.90
47921;DHT22;33686;48.770;9.186;2023-04-24T16:15:07;12.40;99.90
47921;DHT22;33686;48.770;9.186;2023-04-24T16:17:32;12.40;99.90
47921;DHT22;33686;48.770;9.186;2023-04-24T16:19:58;12.50;99.90
47921;DHT22;33686;48.770;9.186;2023-04-24T16:22:24;12.40;99.90
47921;DHT22;33686;48.770;9.186;2023-04-24T16:24:49;12.30;99.90
47921;DHT22;33686;48.770;9.186;2023-04-24T16:27:15;12.10;99.90
47921;DHT22;33686;48.770;9.186;2023-04-24T16:29:40;12.00;99.90
47921;DHT22;33686;48.770;9.186;2023-04-24T16:32:06;11.90;99.90
47921;DHT22;33686;48.770;9.186;2023-04-24T16:34:32;11.90;99.90
47921;DHT22;33686;48.770;9.186;2023-04-24T16:36:57;11.90;99.90
47921;DHT22;33686;48.770;9.186;2023-04-24T16:39:23;11.90;99.90
47921;DHT22;33686;48.770;9.186;2023-04-24T16:41:48;12.00;99.90
47921;DHT22;33686;48.770;9.186;2023-04-24T16:44:14;11.90;99.90
47921;DHT22;33686;48.770;9.186;2023-04-24T16:46:40;11.90;99.90
47921;DHT22;33686;48.770;9.186;2023-04-24T16:49:05;11.80;99.90
47921;DHT22;33686;48.770;9.186;2023-04-24T16:51:31;12.00;99.90
47921;DHT22;33686;48.770;9.186;2023-04-24T16:53:58;12.10;99.90
47921;DHT22;33686;48.770;9.186;2023-04-24T16:56:23;12.10;99.90
47921;DHT22;33686;48.770;9.186;2023-04-24T16:58:49;12.10;99.90
47921;DHT22;33686;48.770;9.186;2023-04-24T17:01:14;12.10;99.90
47921;DHT22;33686;48.770;9.186;2023-04-24T17:03:40;12.10;99.90
47921;DHT22;33686;48.770;9.186;2023-04-24T17:06:05;12.20;99.90
47921;DHT22;33686;48.770;9.186;2023-04-24T17:08:31;12.40;99.90
47921;DHT22;33686;48.770;9.186;2023-04-24T17:10:57;12.20;99.90
47921;DHT22;33686;48.770;9.186;2023-04-24T17:13:22;12.30;99.90
47921;DHT22;33686;48.770;9.186;2023-04-24T17:15:48;12.40;99.90
47921;DHT22;33686;48.770;9.186;2023-04-24T17:18:13;12.60;99.90
47921;DHT22;33686;48.770;9.186;2023-04-24T17:20:39;12.60;99.90
47921;DHT22;33686;48.770;9.186;2023-04-24T17:23:05;12.50;99.90
47921;DHT22;33686;48.770;9.186;2023-04-24T17:25:30;12.40;99.90
47921;DHT22;33686;48.770;9.186;2023-04-24T17:27:56;12.30;99.90
47921;DHT22;33686;48.770;9.186;2023-04-24T17:30:22;12.40;99.90
47921;DHT22;33686;48.770;9.186;2023-04-24T17:32:47;12.30;99.90
47921;DHT22;33686;48.770;9.186;2023-04-24T17:35:13;12.20;99.90
47921;DHT22;33686;48.770;9.186;2023-04-24T17:37:38;12.10;99.90
47921;DHT22;33686;48.770;9.186;2023-04-24T17:40:04;12.10;99.90
47921;DHT22;33686;48.770;9.186;2023-04-24T17:42:30;12.10;99.90
47921;DHT22;33686;48.770;9.186;2023-04-24T17:44:55;12.00;99.90
47921;DHT22;33686;48.770;9.186;2023-04-24T17:47:21;12.00;99.90
47921;DHT22;33686;48.770;9.186;2023-04-24T17:49:46;11.90;99.90
47921;DHT22;33686;48.770;9.186;2023-04-24T17:52:12;11.80;99.90
47921;DHT22;33686;48.770;9.186;2023-04-24T17:54:38;11.80;99.90
47921;DHT22;33686;48.770;9.186;2023-04-24T17:57:04;11.80;99.90
47921;DHT22;33686;48.770;9.186;2023-04-24T17:59:29;11.70;99.90
47921;DHT22;33686;48.770;9.186;2023-04-24T18:01:55;11.80;99.90
47921;DHT22;33686;48.770;9.186;2023-04-24T18:04:22;11.70;99.90
47921;DHT22;33686;48.770;9.186;2023-04-24T18:06:47;11.70;99.90
47921;DHT22;33686;48.770;9.186;2023-04-24T18:09:13;11.80;99.90
47921;DHT22;33686;48.770;9.186;2023-04-24T18:11:40;11.70;99.90
47921;DHT22;33686;48.770;9.186;2023-04-24T18:14:07;11.70;99.90
47921;DHT22;33686;48.770;9.186;2023-04-24T18:16:32;11.70;99.90
47921;DHT22;33686;48.770;9.186;2023-04-24T18:18:58;11.60;99.90
47921;DHT22;33686;48.770;9.186;2023-04-24T18:21:24;11.60;99.90
47921;DHT22;33686;48.770;9.186;2023-04-24T18:23:49;11.60;99.90
47921;DHT22;33686;48.770;9.186;2023-04-24T18:26:15;11.60;99.90
47921;DHT22;33686;48.770;9.186;2023-04-24T18:28:41;11.60;99.90
47921;DHT22;33686;48.770;9.186;2023-04-24T18:31:07;11.60;99.90
47921;DHT22;33686;48.770;9.186;2023-04-24T18:33:33;11.60;99.90
47921;DHT22;33686;48.770;9.186;2023-04-24T18:35:59;11.50;99.90
47921;DHT22;33686;48.770;9.186;2023-04-24T18:38:24;11.50;99.90
47921;DHT22;33686;48.770;9.186;2023-04-24T18:40:50;11.40;99.90
47921;DHT22;33686;48.770;9.186;2023-04-24T18:43:16;11.40;99.90
47921;DHT22;33686;48.770;9.186;2023-04-24T18:45:41;11.40;99.90
47921;DHT22;33686;48.770;9.186;2023-04-24T18:48:07;11.40;99.90
47921;DHT22;33686;48.770;9.186;2023-04-24T18:50:32;11.30;99.90
47921;DHT22;33686;48.770;9.186;2023-04-24T18:52:58;11.30;99.90
47921;DHT22;33686;48.770;9.186;2023-04-24T18:55:24;11.20;99.90
47921;DHT22;33686;48.770;9.186;2023-04-24T18:57:49;11.20;99.90
47921;DHT22;33686;48.770;9.186;2023-04-24T19:00:15;11.10;99.90
47921;DHT22;33686;48.770;9.186;2023-04-24T19:02:42;11.00;99.90
47921;DHT22;33686;48.770;9.186;2023-04-24T19:05:07;11.00;99.90
47921;DHT22;33686;48.770;9.186;2023-04-24T19:07:34;10.90;99.90
47921;DHT22;33686;48.770;9.186;2023-04-24T19:10:00;10.90;99.90
47921;DHT22;33686;48.770;9.186;2023-04-24T19:12:25;10.80;99.90
47921;DHT22;33686;48.770;9.186;2023-04-24T19:14:51;10.70;99.90
47921;DHT22;33686;48.770;9.186;2023-04-24T19:17:16;10.50;99.90
47921;DHT22;33686;48.770;9.186;2023-04-24T19:19:47;10.20;99.90
47921;DHT22;33686;48.770;9.186;2023-04-24T19:22:13;10.30;99.90
47921;DHT22;33686;48.770;9.186;2023-04-24T19:24:38;10.40;99.90
47921;DHT22;33686;48.770;9.186;2023-04-24T19:27:04;10.40;99.90
47921;DHT22;33686;48.770;9.186;2023-04-24T19:29:30;10.30;99.90
47921;DHT22;33686;48.770;9.186;2023-04-24T19:31:55;10.30;99.90
47921;DHT22;33686;48.770;9.186;2023-04-24T19:34:23;10.10;99.90
47921;DHT22;33686;48.770;9.186;2023-04-24T19:36:48;10.00;99.90
47921;DHT22;33686;48.770;9.186;2023-04-24T19:39:14;10.00;99.90
47921;DHT22;33686;48.770;9.186;2023-04-24T19:41:40;10.00;99.90
47921;DHT22;33686;48.770;9.186;2023-04-24T19:44:05;9.90;99.90
47921;DHT22;33686;48.770;9.186;2023-04-24T19:46:31;9.90;99.90
47921;DHT22;33686;48.770;9.186;2023-04-24T19:48:57;9.90;99.90